Time;durP1;ratioP1;P1;durP2;ratioP2;P2;SDS_P1;SDS_P2;PMS_P1;PMS_P2;Temp;Humidity;BMP_temperature;BMP_pressure;BME280_temperature;BME280_humidity;BME280_pressure;Samples;Min_cycle;Max_cycle;Signal;HPM_P1;HPM_P2
2023/01/21 00:02:20;;;;;;;35.85;21.50;;;;;;;;;;5013115;28;20042;-88
2023/01/21 00:04:46;;;;;;;37.03;21.30;;;;;;;;;;5015947;28;20049;-87
2023/01/21 00:07:12;;;;;;;36.05;21.08;;;;;;;;;;5009437;28;20505;-88
2023/01/21 00:09:38;;;;;;;34.92;21.33;;;;;;;;;;5010822;28;20080;-88
2023/01/21 00:12:04;;;;;;;38.70;22.20;;;;;;;;;;5008710;28;20129;-87
2023/01/21 00:14:30;;;;;;;37.17;21.02;;;;;;;;;;5014930;28;20086;-87
2023/01/21 00:16:57;;;;;;;36.70;21.27;;;;;;;;;;5016499;28;20048;-87
2023/01/21 00:19:23;;;;;;;37.30;22.17;;;;;;;;;;5014044;28;20028;-87
2023/01/21 00:21:49;;;;;;;35.20;20.30;;;;;;;;;;5010363;28;20044;-87
2023/01/21 00:24:15;;;;;;;39.92;21.42;;;;;;;;;;5008311;28;20092;-87
2023/01/21 00:26:41;;;;;;;35.85;20.98;;;;;;;;;;5013123;28;20092;-87
2023/01/21 00:29:07;;;;;;;39.63;22.23;;;;;;;;;;5009601;28;20099;-88
2023/01/21 00:31:33;;;;;;;38.17;21.35;;;;;;;;;;5016962;28;20038;-88
2023/01/21 00:33:59;;;;;;;39.40;22.35;;;;;;;;;;5011710;28;20037;-86
2023/01/21 00:36:28;;;;;;;36.75;21.42;;;;;;;;;;5018043;28;20077;-87
2023/01/21 00:38:54;;;;;;;37.67;21.98;;;;;;;;;;5012100;28;20096;-86
2023/01/21 00:41:20;;;;;;;37.47;22.45;;;;;;;;;;5009158;28;20042;-88
2023/01/21 00:43:46;;;;;;;37.53;21.83;;;;;;;;;;5013320;28;20060;-86
2023/01/21 00:46:12;;;;;;;40.50;21.67;;;;;;;;;;5010122;28;20083;-87
2023/01/21 00:48:39;;;;;;;39.80;23.15;;;;;;;;;;5010765;28;20080;-86
2023/01/21 00:51:05;;;;;;;37.80;22.38;;;;;;;;;;5012192;28;20088;-86
2023/01/21 00:53:33;;;;;;;40.47;22.52;;;;;;;;;;5009907;28;20045;-86
2023/01/21 00:56:03;;;;;;;44.35;24.48;;;;;;;;;;5007036;28;20052;-86
2023/01/21 00:58:29;;;;;;;40.22;22.88;;;;;;;;;;5004800;28;21799;-86
2023/01/21 01:01:01;;;;;;;37.15;21.20;;;;;;;;;;5010133;28;20375;-85
2023/01/21 01:03:28;;;;;;;41.00;22.02;;;;;;;;;;5009302;28;20125;-86
2023/01/21 01:05:54;;;;;;;38.28;22.90;;;;;;;;;;5006532;28;20061;-86
2023/01/21 01:08:20;;;;;;;37.13;22.08;;;;;;;;;;5009728;28;20123;-86
2023/01/21 01:10:46;;;;;;;36.78;22.17;;;;;;;;;;5011274;28;20505;-86
2023/01/21 01:13:12;;;;;;;41.67;22.83;;;;;;;;;;5010460;28;20049;-86
2023/01/21 01:15:38;;;;;;;38.88;23.88;;;;;;;;;;5007843;28;20050;-85
2023/01/21 01:18:04;;;;;;;37.47;21.75;;;;;;;;;;5007537;28;20034;-85
2023/01/21 01:20:30;;;;;;;39.88;22.40;;;;;;;;;;5009693;28;20076;-85
2023/01/21 01:22:56;;;;;;;39.78;23.92;;;;;;;;;;5008934;28;20073;-85
2023/01/21 01:25:22;;;;;;;38.65;21.45;;;;;;;;;;5010691;28;20042;-85
2023/01/21 01:27:48;;;;;;;40.72;23.35;;;;;;;;;;5006270;28;20474;-85
2023/01/21 01:30:14;;;;;;;42.50;23.95;;;;;;;;;;5008751;28;20157;-85
2023/01/21 01:32:40;;;;;;;38.70;23.10;;;;;;;;;;5010847;28;20084;-85
2023/01/21 01:35:06;;;;;;;40.55;22.83;;;;;;;;;;5015675;28;20042;-85
2023/01/21 01:37:32;;;;;;;37.53;22.08;;;;;;;;;;5006342;28;20046;-85
2023/01/21 01:39:58;;;;;;;41.20;23.60;;;;;;;;;;5011927;28;20449;-85
2023/01/21 01:42:24;;;;;;;43.33;23.23;;;;;;;;;;5012951;28;20046;-85
2023/01/21 01:45:04;;;;;;;41.47;24.00;;;;;;;;;;5011335;28;20456;-84
2023/01/21 01:47:32;;;;;;;40.08;23.25;;;;;;;;;;5010847;28;20067;-84
2023/01/21 01:49:59;;;;;;;38.80;23.08;;;;;;;;;;5005414;28;20046;-84
2023/01/21 01:52:25;;;;;;;45.97;25.02;;;;;;;;;;5004612;28;20046;-84
2023/01/21 01:54:53;;;;;;;45.92;24.27;;;;;;;;;;5015874;28;20046;-84
2023/01/21 01:57:21;;;;;;;38.95;23.00;;;;;;;;;;5011557;28;20049;-84
2023/01/21 01:59:47;;;;;;;38.25;22.00;;;;;;;;;;5008463;28;20401;-83
2023/01/21 02:02:16;;;;;;;41.33;23.65;;;;;;;;;;5008347;28;20077;-85
2023/01/21 02:04:47;;;;;;;37.75;22.92;;;;;;;;;;5006377;28;20042;-84
2023/01/21 02:07:14;;;;;;;40.47;22.80;;;;;;;;;;5007146;28;20631;-84
2023/01/21 02:09:40;;;;;;;40.90;24.25;;;;;;;;;;5006956;28;20046;-84
2023/01/21 02:12:07;;;;;;;41.88;23.95;;;;;;;;;;5005878;28;20041;-84
2023/01/21 02:14:38;;;;;;;44.92;24.77;;;;;;;;;;5003876;28;20121;-83
2023/01/21 02:17:23;;;;;;;41.55;24.13;;;;;;;;;;5035760;28;20054;-83
2023/01/21 02:20:02;;;;;;;42.95;23.83;;;;;;;;;;5005227;28;20084;-83
2023/01/21 02:22:27;;;;;;;40.72;23.10;;;;;;;;;;5008348;28;20049;-84
2023/01/21 02:24:57;;;;;;;39.10;23.48;;;;;;;;;;4995958;28;20093;-83
2023/01/21 02:27:42;;;;;;;42.60;24.17;;;;;;;;;;5008427;28;20101;-84
2023/01/21 02:30:11;;;;;;;41.20;22.45;;;;;;;;;;5001578;28;20054;-84
2023/01/21 02:33:08;;;;;;;41.35;24.27;;;;;;;;;;5010457;28;20073;-83
2023/01/21 02:35:59;;;;;;;40.67;23.23;;;;;;;;;;5014943;28;20486;-82
2023/01/21 02:38:25;;;;;;;40.53;23.40;;;;;;;;;;5012688;28;20089;-83
2023/01/21 02:41:14;;;;;;;41.83;23.90;;;;;;;;;;5007145;28;20097;-83
2023/01/21 02:43:46;;;;;;;39.35;23.40;;;;;;;;;;5009752;28;20069;-84
2023/01/21 02:46:15;;;;;;;44.38;24.30;;;;;;;;;;5006214;28;20770;-83
2023/01/21 02:48:49;;;;;;;42.15;22.50;;;;;;;;;;5020547;28;20037;-83
2023/01/21 02:51:17;;;;;;;38.70;22.75;;;;;;;;;;5010262;28;20042;-83
2023/01/21 02:53:43;;;;;;;40.72;23.38;;;;;;;;;;5005686;28;20053;-83
2023/01/21 02:56:15;;;;;;;42.85;25.15;;;;;;;;;;5009291;28;20046;-84
2023/01/21 02:58:43;;;;;;;40.63;23.98;;;;;;;;;;5009517;28;20500;-83
2023/01/21 03:01:22;;;;;;;41.40;23.20;;;;;;;;;;5007545;28;20046;-84
2023/01/21 03:04:00;;;;;;;41.40;23.35;;;;;;;;;;5006865;28;20497;-83
2023/01/21 03:06:35;;;;;;;39.85;22.75;;;;;;;;;;5013767;28;20424;-84
2023/01/21 03:09:04;;;;;;;39.67;23.00;;;;;;;;;;5009455;28;20042;-83
2023/01/21 03:11:30;;;;;;;44.65;23.88;;;;;;;;;;5013743;28;20099;-83
2023/01/21 03:16:58;;;;;;;42.72;24.08;;;;;;;;;;5005836;28;20049;-83
2023/01/21 03:19:32;;;;;;;40.92;23.65;;;;;;;;;;5014341;28;20108;-83
2023/01/21 03:22:01;;;;;;;38.80;22.70;;;;;;;;;;5005573;28;20485;-83
2023/01/21 03:24:27;;;;;;;41.60;24.00;;;;;;;;;;5013295;28;20137;-83
2023/01/21 03:26:56;;;;;;;39.75;22.75;;;;;;;;;;4993870;28;20088;-82
2023/01/21 03:29:24;;;;;;;42.08;23.50;;;;;;;;;;5010075;28;20054;-84
2023/01/21 03:31:53;;;;;;;44.47;24.00;;;;;;;;;;5015069;28;20088;-83
2023/01/21 03:34:19;;;;;;;43.53;24.10;;;;;;;;;;5016253;28;20040;-83
2023/01/21 03:36:52;;;;;;;43.28;24.95;;;;;;;;;;5007495;28;20069;-83
2023/01/21 03:39:25;;;;;;;47.50;24.77;;;;;;;;;;5009406;28;20398;-84
2023/01/21 03:41:51;;;;;;;43.00;23.05;;;;;;;;;;5002754;28;20482;-82
2023/01/21 03:44:17;;;;;;;40.88;23.58;;;;;;;;;;5008581;28;20125;-83
2023/01/21 03:46:55;;;;;;;38.63;23.58;;;;;;;;;;5007970;28;20124;-83
2023/01/21 03:49:31;;;;;;;41.80;25.52;;;;;;;;;;5009753;28;20050;-83
2023/01/21 03:51:59;;;;;;;40.30;23.90;;;;;;;;;;5010993;28;20045;-83
2023/01/21 03:54:25;;;;;;;40.35;23.58;;;;;;;;;;5013423;28;20042;-82
2023/01/21 03:56:51;;;;;;;42.22;23.10;;;;;;;;;;5011021;28;20069;-83
2023/01/21 03:59:17;;;;;;;40.58;24.27;;;;;;;;;;5006820;28;20666;-83
2023/01/21 04:01:43;;;;;;;43.65;24.15;;;;;;;;;;5015170;28;20070;-83
2023/01/21 04:04:09;;;;;;;41.17;24.13;;;;;;;;;;5007127;28;20073;-83
2023/01/21 04:06:35;;;;;;;44.83;24.00;;;;;;;;;;5008374;28;20493;-84
2023/01/21 04:09:05;;;;;;;44.75;23.50;;;;;;;;;;5013742;28;20125;-84
2023/01/21 04:11:32;;;;;;;45.03;25.38;;;;;;;;;;5009213;28;20064;-83
2023/01/21 04:13:57;;;;;;;44.75;24.85;;;;;;;;;;5008950;28;20105;-83
2023/01/21 04:16:23;;;;;;;39.65;24.20;;;;;;;;;;5007314;28;20046;-83
2023/01/21 04:18:50;;;;;;;43.13;24.67;;;;;;;;;;5012482;28;20100;-83
2023/01/21 04:21:18;;;;;;;42.22;24.92;;;;;;;;;;5004827;28;20375;-83
2023/01/21 04:23:44;;;;;;;45.47;24.52;;;;;;;;;;5008525;28;20052;-83
2023/01/21 04:26:10;;;;;;;42.63;24.63;;;;;;;;;;5011153;28;20037;-84
2023/01/21 04:28:36;;;;;;;40.30;24.20;;;;;;;;;;5011940;28;20073;-83
2023/01/21 04:31:02;;;;;;;45.33;25.45;;;;;;;;;;5010838;28;20042;-83
2023/01/21 04:33:29;;;;;;;42.72;24.88;;;;;;;;;;5006960;28;20087;-83
2023/01/21 04:35:58;;;;;;;46.63;26.08;;;;;;;;;;5014963;28;20121;-83
2023/01/21 04:38:24;;;;;;;45.15;25.92;;;;;;;;;;5003885;28;20050;-84
2023/01/21 04:40:51;;;;;;;41.78;23.63;;;;;;;;;;5012999;28;20034;-83
2023/01/21 04:43:17;;;;;;;44.55;25.17;;;;;;;;;;5009328;28;20136;-83
2023/01/21 04:45:43;;;;;;;40.22;25.42;;;;;;;;;;5010799;28;20494;-83
2023/01/21 04:48:09;;;;;;;40.83;24.73;;;;;;;;;;5009259;28;20489;-83
2023/01/21 04:50:35;;;;;;;44.75;24.08;;;;;;;;;;5007601;28;20038;-83
2023/01/21 04:53:01;;;;;;;42.00;25.33;;;;;;;;;;5008292;28;20046;-83
2023/01/21 04:55:27;;;;;;;47.75;26.20;;;;;;;;;;5010249;28;20053;-83
2023/01/21 04:57:53;;;;;;;44.72;25.58;;;;;;;;;;5009927;28;20063;-83
2023/01/21 05:00:19;;;;;;;45.33;25.88;;;;;;;;;;5012433;28;20563;-83
2023/01/21 05:02:45;;;;;;;46.60;25.90;;;;;;;;;;4993998;28;20046;-83
2023/01/21 05:05:11;;;;;;;46.05;25.73;;;;;;;;;;5009157;28;20100;-84
2023/01/21 05:07:37;;;;;;;45.35;25.55;;;;;;;;;;5007332;28;20524;-84
2023/01/21 05:10:06;;;;;;;45.85;25.08;;;;;;;;;;5010576;28;20041;-83
2023/01/21 05:12:32;;;;;;;43.55;24.38;;;;;;;;;;5024842;28;20042;-83
2023/01/21 05:14:58;;;;;;;47.88;25.80;;;;;;;;;;5016857;28;20052;-83
2023/01/21 05:17:25;;;;;;;43.05;23.60;;;;;;;;;;5008577;28;20398;-84
2023/01/21 05:19:51;;;;;;;39.17;23.77;;;;;;;;;;5014988;28;20046;-83
2023/01/21 05:22:17;;;;;;;41.38;24.08;;;;;;;;;;5013040;28;20520;-84
2023/01/21 05:24:43;;;;;;;41.40;23.92;;;;;;;;;;5004725;28;20129;-84
2023/01/21 05:27:09;;;;;;;45.17;25.13;;;;;;;;;;5012051;28;20489;-84
2023/01/21 05:29:35;;;;;;;47.22;25.92;;;;;;;;;;5000068;28;20050;-84
2023/01/21 05:32:01;;;;;;;44.85;24.60;;;;;;;;;;5012829;28;20045;-84
2023/01/21 05:34:27;;;;;;;46.17;24.98;;;;;;;;;;5010396;28;20057;-83
2023/01/21 05:36:53;;;;;;;48.10;26.88;;;;;;;;;;5015665;28;20069;-83
2023/01/21 05:39:19;;;;;;;47.83;26.63;;;;;;;;;;5007001;28;20494;-84
2023/01/21 05:41:45;;;;;;;46.50;26.63;;;;;;;;;;5011946;28;20045;-84
2023/01/21 05:44:11;;;;;;;41.13;24.17;;;;;;;;;;5009850;28;20050;-84
2023/01/21 05:46:37;;;;;;;47.33;26.38;;;;;;;;;;5011390;28;20129;-84
2023/01/21 05:49:03;;;;;;;45.65;26.20;;;;;;;;;;5009928;28;20125;-83
2023/01/21 05:51:32;;;;;;;44.88;26.60;;;;;;;;;;5014504;28;20045;-83
2023/01/21 05:53:58;;;;;;;45.88;24.98;;;;;;;;;;5012867;28;20131;-83
2023/01/21 05:56:24;;;;;;;45.42;25.13;;;;;;;;;;5006034;28;20074;-84
2023/01/21 05:58:50;;;;;;;45.72;25.25;;;;;;;;;;5007082;28;20074;-84
2023/01/21 06:01:16;;;;;;;41.35;24.20;;;;;;;;;;5011399;28;20104;-83
2023/01/21 06:03:42;;;;;;;46.83;24.98;;;;;;;;;;5004022;28;20134;-84
2023/01/21 06:06:08;;;;;;;41.88;23.35;;;;;;;;;;5004286;28;20078;-83
2023/01/21 06:08:34;;;;;;;42.78;25.02;;;;;;;;;;5025723;28;20055;-84
2023/01/21 06:11:00;;;;;;;37.92;22.75;;;;;;;;;;5009319;28;20108;-84
2023/01/21 06:13:26;;;;;;;44.40;24.38;;;;;;;;;;5003783;28;21211;-84
2023/01/21 06:15:56;;;;;;;42.95;22.92;;;;;;;;;;5006237;28;21543;-83
2023/01/21 06:18:23;;;;;;;42.17;24.15;;;;;;;;;;5007981;28;20140;-84
2023/01/21 06:20:49;;;;;;;39.85;23.52;;;;;;;;;;5000523;28;20105;-84
2023/01/21 06:23:15;;;;;;;45.00;24.95;;;;;;;;;;5004720;28;20088;-84
2023/01/21 06:25:42;;;;;;;44.65;24.92;;;;;;;;;;5010257;28;20046;-84
2023/01/21 06:28:09;;;;;;;43.22;25.38;;;;;;;;;;5037552;28;20061;-84
2023/01/21 06:30:35;;;;;;;43.60;25.10;;;;;;;;;;5039729;28;20076;-85
2023/01/21 06:33:01;;;;;;;42.20;24.35;;;;;;;;;;5001895;28;20037;-85
2023/01/21 06:35:28;;;;;;;43.85;24.63;;;;;;;;;;5009672;28;20107;-84
2023/01/21 06:37:54;;;;;;;45.53;25.92;;;;;;;;;;5006619;28;20118;-84
2023/01/21 06:40:20;;;;;;;45.88;24.75;;;;;;;;;;5008176;28;20567;-85
2023/01/21 06:42:46;;;;;;;42.75;24.80;;;;;;;;;;5020723;28;20046;-85
2023/01/21 06:45:12;;;;;;;41.03;25.42;;;;;;;;;;5010675;28;20045;-85
2023/01/21 06:47:42;;;;;;;40.25;23.45;;;;;;;;;;5017171;28;20759;-85
2023/01/21 06:50:12;;;;;;;42.00;24.25;;;;;;;;;;5005745;28;20046;-86
2023/01/21 06:52:39;;;;;;;46.33;26.45;;;;;;;;;;5013469;28;20154;-84
2023/01/21 06:55:05;;;;;;;46.95;26.75;;;;;;;;;;5012197;28;20049;-84
2023/01/21 06:57:31;;;;;;;47.70;26.48;;;;;;;;;;5009959;28;20548;-85
2023/01/21 06:59:57;;;;;;;48.47;26.45;;;;;;;;;;5012871;28;20164;-84
2023/01/21 07:02:23;;;;;;;46.47;26.38;;;;;;;;;;5013054;28;20149;-85
2023/01/21 07:04:52;;;;;;;45.42;26.88;;;;;;;;;;5017054;28;20041;-84
2023/01/21 07:07:18;;;;;;;46.90;26.98;;;;;;;;;;5007925;28;20062;-85
2023/01/21 07:09:47;;;;;;;46.33;26.92;;;;;;;;;;5010923;28;20041;-85
2023/01/21 07:12:13;;;;;;;47.95;28.52;;;;;;;;;;5005593;28;20145;-85
2023/01/21 07:14:39;;;;;;;44.65;26.35;;;;;;;;;;5009164;28;20045;-86
2023/01/21 07:17:05;;;;;;;53.72;29.17;;;;;;;;;;5011003;28;20045;-85
2023/01/21 07:19:31;;;;;;;50.47;27.80;;;;;;;;;;5012251;28;20045;-85
2023/01/21 07:21:57;;;;;;;52.85;29.13;;;;;;;;;;5006709;28;20232;-85
2023/01/21 07:24:23;;;;;;;68.35;38.97;;;;;;;;;;5012941;28;20037;-85
2023/01/21 07:26:55;;;;;;;51.60;30.08;;;;;;;;;;5009756;28;20065;-85
2023/01/21 07:29:22;;;;;;;54.00;29.55;;;;;;;;;;5011867;28;20441;-84
2023/01/21 07:31:48;;;;;;;51.47;28.85;;;;;;;;;;5012934;28;20140;-86
2023/01/21 07:34:14;;;;;;;48.85;28.83;;;;;;;;;;5013823;28;20041;-86
2023/01/21 07:36:40;;;;;;;50.95;27.25;;;;;;;;;;5012538;28;20496;-86
2023/01/21 07:39:07;;;;;;;47.63;27.38;;;;;;;;;;5012612;28;20485;-86
2023/01/21 07:41:36;;;;;;;52.80;28.92;;;;;;;;;;5009579;28;20042;-85
2023/01/21 07:44:04;;;;;;;48.47;27.92;;;;;;;;;;5008849;28;20041;-85
2023/01/21 07:46:32;;;;;;;50.38;28.85;;;;;;;;;;5023905;28;20041;-86
2023/01/21 07:48:58;;;;;;;51.00;30.02;;;;;;;;;;5044652;28;20061;-84
2023/01/21 07:51:24;;;;;;;50.95;29.70;;;;;;;;;;5012462;28;20371;-85
2023/01/21 07:53:50;;;;;;;54.28;29.05;;;;;;;;;;5007865;28;20098;-84
2023/01/21 07:56:17;;;;;;;51.45;29.48;;;;;;;;;;5009932;28;20053;-85
2023/01/21 07:58:43;;;;;;;52.42;29.25;;;;;;;;;;5009161;28;20517;-85
2023/01/21 08:01:09;;;;;;;49.65;28.73;;;;;;;;;;5013131;28;20477;-85
2023/01/21 08:03:36;;;;;;;48.60;28.60;;;;;;;;;;5041308;28;20046;-85
2023/01/21 08:06:03;;;;;;;48.75;28.35;;;;;;;;;;5008940;28;20124;-85
2023/01/21 08:08:29;;;;;;;47.33;27.90;;;;;;;;;;5010319;28;20054;-86
2023/01/21 08:10:55;;;;;;;46.30;26.95;;;;;;;;;;4995210;28;20038;-85
2023/01/21 08:13:21;;;;;;;51.83;27.83;;;;;;;;;;5009519;28;20962;-85
2023/01/21 08:15:55;;;;;;;50.58;27.73;;;;;;;;;;5008355;28;20120;-85
2023/01/21 08:18:22;;;;;;;52.05;29.27;;;;;;;;;;5006896;28;20049;-85
2023/01/21 08:20:52;;;;;;;49.33;28.88;;;;;;;;;;5008148;28;20042;-85
2023/01/21 08:23:18;;;;;;;53.40;28.95;;;;;;;;;;5006074;28;20038;-85
2023/01/21 08:25:44;;;;;;;47.42;26.52;;;;;;;;;;5006440;28;20071;-85
2023/01/21 08:28:10;;;;;;;48.55;27.35;;;;;;;;;;5013750;28;20442;-85
2023/01/21 08:30:36;;;;;;;50.65;27.33;;;;;;;;;;5009348;28;20119;-85
2023/01/21 08:33:02;;;;;;;47.75;27.73;;;;;;;;;;5010132;28;20581;-85
2023/01/21 08:35:28;;;;;;;48.45;27.40;;;;;;;;;;5006398;28;20128;-84
2023/01/21 08:37:57;;;;;;;48.80;27.13;;;;;;;;;;4990030;28;20104;-84
2023/01/21 08:40:25;;;;;;;48.05;28.15;;;;;;;;;;5008988;28;20065;-85
2023/01/21 08:42:52;;;;;;;52.25;28.80;;;;;;;;;;5011234;28;20729;-84
2023/01/21 08:45:18;;;;;;;51.55;29.85;;;;;;;;;;5006467;28;20045;-85
2023/01/21 08:47:44;;;;;;;57.38;29.92;;;;;;;;;;5014145;28;20078;-84
2023/01/21 08:50:10;;;;;;;51.15;28.33;;;;;;;;;;5006497;28;20121;-85
2023/01/21 08:52:36;;;;;;;53.13;29.50;;;;;;;;;;5007103;28;20073;-84
2023/01/21 08:55:02;;;;;;;53.95;29.27;;;;;;;;;;5007594;28;20084;-84
2023/01/21 08:57:28;;;;;;;52.75;29.80;;;;;;;;;;5013909;28;20062;-84
2023/01/21 08:59:54;;;;;;;49.20;28.30;;;;;;;;;;5011748;28;20041;-83
2023/01/21 09:02:26;;;;;;;50.88;30.23;;;;;;;;;;5007735;28;20073;-84
2023/01/21 09:04:52;;;;;;;52.00;29.67;;;;;;;;;;5008174;28;20077;-84
2023/01/21 09:07:18;;;;;;;52.70;32.05;;;;;;;;;;5011962;28;20122;-87
2023/01/21 09:09:44;;;;;;;52.15;30.25;;;;;;;;;;5020760;28;20480;-87
2023/01/21 09:12:10;;;;;;;51.35;30.67;;;;;;;;;;5023507;28;20045;-86
2023/01/21 09:14:36;;;;;;;53.30;30.30;;;;;;;;;;5012766;28;20038;-86
2023/01/21 09:17:02;;;;;;;51.50;30.10;;;;;;;;;;5013700;28;20046;-85
2023/01/21 09:19:28;;;;;;;50.90;29.77;;;;;;;;;;5021041;28;20057;-87
2023/01/21 09:21:57;;;;;;;58.47;31.75;;;;;;;;;;5007167;28;20061;-87
2023/01/21 09:24:23;;;;;;;58.17;32.55;;;;;;;;;;5004184;28;20088;-85
2023/01/21 09:26:49;;;;;;;56.90;32.42;;;;;;;;;;5001842;28;20409;-86
2023/01/21 09:29:16;;;;;;;53.40;29.92;;;;;;;;;;4997779;28;20050;-87
2023/01/21 09:31:42;;;;;;;50.67;29.50;;;;;;;;;;5000781;28;20057;-86
2023/01/21 09:34:10;;;;;;;52.67;30.40;;;;;;;;;;5009656;28;20050;-88
2023/01/21 09:36:36;;;;;;;58.60;30.52;;;;;;;;;;5011755;28;20401;-90
2023/01/21 09:39:03;;;;;;;51.45;29.58;;;;;;;;;;5008071;28;20038;-87
2023/01/21 09:41:35;;;;;;;54.75;30.08;;;;;;;;;;5009498;28;20054;-86
2023/01/21 09:44:13;;;;;;;54.38;30.60;;;;;;;;;;5002716;28;20057;-86
2023/01/21 09:46:43;;;;;;;51.75;30.45;;;;;;;;;;5011657;28;20054;-89
2023/01/21 09:49:24;;;;;;;55.40;29.90;;;;;;;;;;4998238;28;20046;-89
2023/01/21 09:51:53;;;;;;;56.67;30.77;;;;;;;;;;4996423;28;20049;-86
2023/01/21 09:54:24;;;;;;;54.05;30.67;;;;;;;;;;5001707;28;20055;-89
2023/01/21 09:57:10;;;;;;;52.83;29.90;;;;;;;;;;5005454;28;20386;-90
2023/01/21 09:59:43;;;;;;;53.58;30.48;;;;;;;;;;4988705;28;20103;-88
2023/01/21 10:02:17;;;;;;;48.50;28.25;;;;;;;;;;5008194;28;20046;-89
2023/01/21 10:04:47;;;;;;;53.45;29.90;;;;;;;;;;5042032;28;20068;-89
2023/01/21 10:07:18;;;;;;;51.33;29.70;;;;;;;;;;5005834;28;20409;-90
2023/01/21 10:10:10;;;;;;;48.42;28.98;;;;;;;;;;5013445;28;20041;-90
2023/01/21 10:12:55;;;;;;;47.10;27.35;;;;;;;;;;5039006;28;20454;-91
2023/01/21 10:15:33;;;;;;;49.88;27.15;;;;;;;;;;5006271;28;20159;-90
2023/01/21 10:18:00;;;;;;;49.83;28.10;;;;;;;;;;5010293;28;20123;-90
2023/01/21 10:20:44;;;;;;;48.55;29.83;;;;;;;;;;5011172;28;20066;-91
2023/01/21 10:23:13;;;;;;;46.70;27.60;;;;;;;;;;5008561;28;20410;-90
2023/01/21 10:25:40;;;;;;;46.58;28.95;;;;;;;;;;5000630;28;20911;-88
2023/01/21 10:28:11;;;;;;;49.55;29.67;;;;;;;;;;5015262;28;20128;-90
2023/01/21 10:30:42;;;;;;;46.75;28.38;;;;;;;;;;5018668;28;20439;-93
2023/01/21 10:33:14;;;;;;;51.03;28.45;;;;;;;;;;5022593;28;20045;-92
2023/01/21 10:35:59;;;;;;;44.65;27.38;;;;;;;;;;5016756;28;20389;-92
2023/01/21 10:38:25;;;;;;;46.88;27.42;;;;;;;;;;5022639;28;20077;-91
2023/01/21 10:41:04;;;;;;;45.90;26.98;;;;;;;;;;5016592;28;20076;-91
2023/01/21 10:43:34;;;;;;;41.22;24.83;;;;;;;;;;5010777;28;20092;-89
2023/01/21 10:46:00;;;;;;;41.72;25.70;;;;;;;;;;5009881;28;20033;-89
2023/01/21 10:48:36;;;;;;;40.00;23.98;;;;;;;;;;4992836;28;21898;-87
2023/01/21 10:51:06;;;;;;;40.75;23.33;;;;;;;;;;5013676;28;20049;-88
2023/01/21 10:53:35;;;;;;;40.97;23.65;;;;;;;;;;5014212;28;20375;-86
2023/01/21 10:56:07;;;;;;;37.50;23.40;;;;;;;;;;5017727;28;20045;-88
2023/01/21 10:58:37;;;;;;;40.97;23.45;;;;;;;;;;5021906;28;20046;-87
2023/01/21 11:01:04;;;;;;;38.33;23.02;;;;;;;;;;5010103;28;20129;-90
2023/01/21 11:03:37;;;;;;;41.53;23.40;;;;;;;;;;5015577;28;20042;-89
2023/01/21 11:06:05;;;;;;;38.25;22.13;;;;;;;;;;5014920;28;20038;-93
2023/01/21 11:08:31;;;;;;;42.10;24.45;;;;;;;;;;4983182;28;1077673;-88
2023/01/21 11:10:59;;;;;;;45.35;25.08;;;;;;;;;;5015821;28;20058;-92
2023/01/21 11:13:25;;;;;;;37.58;23.52;;;;;;;;;;5020151;28;20050;-90
2023/01/21 11:15:52;;;;;;;41.60;26.00;;;;;;;;;;5012346;28;20046;-91
2023/01/21 11:18:30;;;;;;;45.80;26.73;;;;;;;;;;5010781;28;20050;-87
2023/01/21 11:20:58;;;;;;;39.90;24.67;;;;;;;;;;5012149;28;20128;-91
2023/01/21 11:23:27;;;;;;;39.35;23.35;;;;;;;;;;5013127;28;20046;-91
2023/01/21 11:26:00;;;;;;;37.88;23.63;;;;;;;;;;5014817;28;20038;-92
2023/01/21 11:28:30;;;;;;;35.85;22.55;;;;;;;;;;5011280;28;20046;-81
2023/01/21 11:31:15;;;;;;;38.88;23.30;;;;;;;;;;5007687;28;20468;-82
2023/01/21 11:33:44;;;;;;;37.45;22.05;;;;;;;;;;5011015;28;20053;-83
2023/01/21 11:36:17;;;;;;;36.70;20.40;;;;;;;;;;5010625;28;20069;-82
2023/01/21 11:38:46;;;;;;;28.13;18.25;;;;;;;;;;5008489;28;20046;-82
2023/01/21 11:41:12;;;;;;;26.85;16.75;;;;;;;;;;5014955;28;20121;-82
2023/01/21 11:43:43;;;;;;;24.70;16.83;;;;;;;;;;5004790;28;20141;-81
2023/01/21 11:46:25;;;;;;;26.23;16.08;;;;;;;;;;4994343;28;20409;-82
2023/01/21 11:48:55;;;;;;;25.25;16.35;;;;;;;;;;5010572;28;20058;-82
2023/01/21 11:51:21;;;;;;;26.10;16.70;;;;;;;;;;5010057;28;20140;-82
2023/01/21 11:53:47;;;;;;;23.98;16.20;;;;;;;;;;4993748;28;20038;-81
2023/01/21 11:56:15;;;;;;;27.25;16.83;;;;;;;;;;5008418;28;20112;-81
2023/01/21 11:58:42;;;;;;;25.50;16.45;;;;;;;;;;5015735;28;20468;-82
2023/01/21 12:01:18;;;;;;;28.40;17.63;;;;;;;;;;5010805;28;20463;-83
2023/01/21 12:03:47;;;;;;;26.85;17.05;;;;;;;;;;5009590;28;20046;-83
2023/01/21 12:06:17;;;;;;;24.05;16.13;;;;;;;;;;5006747;28;20041;-82
2023/01/21 12:08:47;;;;;;;25.52;17.27;;;;;;;;;;5002635;28;20042;-81
2023/01/21 12:11:18;;;;;;;24.58;15.82;;;;;;;;;;5000856;28;20042;-82
2023/01/21 12:13:59;;;;;;;26.27;16.20;;;;;;;;;;5002814;28;20042;-82
2023/01/21 12:16:34;;;;;;;25.58;16.88;;;;;;;;;;4990359;28;20073;-81
2023/01/21 12:19:18;;;;;;;23.55;16.20;;;;;;;;;;5013261;28;20125;-82
2023/01/21 12:21:54;;;;;;;24.60;16.40;;;;;;;;;;5007048;28;20050;-82
2023/01/21 12:24:43;;;;;;;25.35;16.42;;;;;;;;;;5005813;28;20084;-83
2023/01/21 12:27:32;;;;;;;24.67;16.73;;;;;;;;;;5016107;28;20063;-82
2023/01/21 12:29:58;;;;;;;23.15;15.00;;;;;;;;;;5015075;28;20050;-82
2023/01/21 12:32:29;;;;;;;23.08;16.23;;;;;;;;;;5036643;28;20057;-83
2023/01/21 12:35:07;;;;;;;23.08;16.48;;;;;;;;;;5010585;28;20038;-79
2023/01/21 12:37:41;;;;;;;22.67;14.70;;;;;;;;;;5014475;28;20050;-82
2023/01/21 12:40:34;;;;;;;23.00;16.42;;;;;;;;;;5003808;28;20046;-82
2023/01/21 12:43:02;;;;;;;23.33;15.75;;;;;;;;;;5004028;28;20065;-83
2023/01/21 12:45:34;;;;;;;24.65;16.08;;;;;;;;;;5011573;28;20169;-81
2023/01/21 12:48:04;;;;;;;24.90;15.97;;;;;;;;;;5007595;28;20034;-82
2023/01/21 12:50:42;;;;;;;22.08;15.25;;;;;;;;;;5008525;28;20050;-82
2023/01/21 12:53:14;;;;;;;22.08;14.02;;;;;;;;;;5009061;28;20034;-82
2023/01/21 12:55:59;;;;;;;19.45;14.43;;;;;;;;;;4999587;28;20065;-83
2023/01/21 12:58:29;;;;;;;21.63;14.98;;;;;;;;;;4999781;28;20057;-80
2023/01/21 13:00:57;;;;;;;22.95;15.68;;;;;;;;;;5010622;28;20046;-90
2023/01/21 13:03:37;;;;;;;19.15;14.63;;;;;;;;;;5011319;28;20493;-91
2023/01/21 13:06:06;;;;;;;17.00;12.00;;;;;;;;;;5014832;28;20126;-92
2023/01/21 13:08:35;;;;;;;12.98;10.25;;;;;;;;;;5017095;28;20100;-90
2023/01/21 13:11:27;;;;;;;15.65;10.00;;;;;;;;;;5005438;28;20034;-90
2023/01/21 13:14:08;;;;;;;13.27;10.07;;;;;;;;;;5005875;28;20560;-90
2023/01/21 13:16:35;;;;;;;12.43;8.95;;;;;;;;;;5011101;28;20126;-91
2023/01/21 13:19:02;;;;;;;11.02;8.27;;;;;;;;;;5012314;28;20104;-91
2023/01/21 13:21:37;;;;;;;10.85;8.27;;;;;;;;;;4997389;28;20046;-91
2023/01/21 13:24:23;;;;;;;11.30;7.88;;;;;;;;;;5011167;28;20552;-91
2023/01/21 13:26:52;;;;;;;9.25;7.68;;;;;;;;;;5029622;28;20050;-91
2023/01/21 13:29:27;;;;;;;11.27;8.73;;;;;;;;;;5013465;28;20501;-90
2023/01/21 13:32:09;;;;;;;9.85;8.52;;;;;;;;;;5004882;28;20050;-90
2023/01/21 13:34:55;;;;;;;10.77;8.77;;;;;;;;;;5009261;28;20050;-90
2023/01/21 13:37:40;;;;;;;10.45;8.55;;;;;;;;;;5009344;28;20064;-89
2023/01/21 13:40:14;;;;;;;11.00;8.65;;;;;;;;;;5010784;28;20053;-89
2023/01/21 13:42:53;;;;;;;16.40;10.55;;;;;;;;;;5013340;28;20046;-90
2023/01/21 13:45:34;;;;;;;12.63;9.77;;;;;;;;;;4993597;28;20485;-87
2023/01/21 13:48:04;;;;;;;12.57;10.68;;;;;;;;;;5008144;28;20050;-89
2023/01/21 13:50:36;;;;;;;13.95;10.73;;;;;;;;;;5014378;28;20054;-88
2023/01/21 13:53:21;;;;;;;12.52;9.43;;;;;;;;;;5015090;28;20046;-90
2023/01/21 13:55:56;;;;;;;12.95;8.73;;;;;;;;;;5011483;28;20034;-90
2023/01/21 13:58:34;;;;;;;10.90;9.10;;;;;;;;;;5010437;28;20050;-89
2023/01/21 14:01:04;;;;;;;12.60;8.93;;;;;;;;;;5015555;28;20038;-91
2023/01/21 14:03:49;;;;;;;12.27;9.82;;;;;;;;;;5009553;28;20396;-86
2023/01/21 14:06:18;;;;;;;12.65;9.70;;;;;;;;;;5008507;28;20092;-84
2023/01/21 14:08:44;;;;;;;12.98;9.85;;;;;;;;;;4999878;28;20101;-82
2023/01/21 14:11:28;;;;;;;13.93;10.20;;;;;;;;;;5007557;28;20046;-89
2023/01/21 14:14:21;;;;;;;12.95;9.85;;;;;;;;;;5012240;28;20060;-85
2023/01/21 14:16:47;;;;;;;13.20;9.98;;;;;;;;;;5011831;28;20108;-84
2023/01/21 14:19:22;;;;;;;12.57;9.98;;;;;;;;;;4994010;28;20130;-86
2023/01/21 14:21:51;;;;;;;11.52;9.25;;;;;;;;;;5009362;28;20387;-82
2023/01/21 14:24:23;;;;;;;13.25;9.88;;;;;;;;;;5014100;28;20041;-76
2023/01/21 14:27:15;;;;;;;14.38;9.90;;;;;;;;;;5017341;28;21543;-78
2023/01/21 14:29:55;;;;;;;12.57;10.10;;;;;;;;;;5020700;28;20128;-79
2023/01/21 14:32:28;;;;;;;13.68;10.23;;;;;;;;;;5003858;28;20041;-80
2023/01/21 14:35:15;;;;;;;12.75;10.63;;;;;;;;;;5011165;28;20095;-88
2023/01/21 14:38:05;;;;;;;13.02;9.77;;;;;;;;;;5005957;28;20046;-90